Lumbo, Mozambique
Current Conditions -  °F | °C
As of 5:00 AM on Sunday 26 Oct 2014 (Local Time) from FQNP Reporting Station
Scattered Clouds Scattered Clouds  
Wind Chill: 68°   Ceiling: Unl
Heat Index: 68°   Visibility: 6mi
Dew Point: 63°   Wind: 7mph
Humidity: 83%   Direction: 170°S
Pressure: 30.03"   Gusts: NA
Location:  15.02°S, 40.65°E
Report Text: FQNP 260300Z 17006KT 9999 SCT020 20/17 Q1017
Loading
Personal Weather Stations






























Interactive Weather Map
Tropical Storm Tracking
New forecast layout! Learn more

10-Day Weather Forecast

Advertisements
Track Severe Weather on mobile